createdAt,value
2019-05-01T00:00:27.126Z,76.71
2019-05-01T00:01:27.245Z,76.90
2019-05-01T00:02:27.378Z,76.39
2019-05-01T00:03:27.538Z,76.90
2019-05-01T00:04:27.674Z,76.71
2019-05-01T00:05:27.802Z,76.81
2019-05-01T00:06:27.931Z,75.95
2019-05-01T00:07:28.076Z,76.04
2019-05-01T00:08:28.209Z,76.23
2019-05-01T00:09:28.358Z,76.20
2019-05-01T00:10:28.483Z,76.52
2019-05-01T00:11:28.619Z,76.23
2019-05-01T00:12:28.901Z,76.39
2019-05-01T00:13:28.902Z,76.39
2019-05-01T00:14:29.138Z,76.20
2019-05-01T00:15:29.178Z,75.81
2019-05-01T00:16:29.303Z,75.62
2019-05-01T00:17:29.437Z,75.43
2019-05-01T00:18:29.609Z,76.20
2019-05-01T00:19:29.726Z,76.29
2019-05-01T00:20:29.852Z,76.29
2019-05-01T00:21:29.976Z,76.77
2019-05-01T00:22:30.137Z,76.86
2019-05-01T00:23:30.250Z,76.57
2019-05-01T00:24:30.399Z,76.77
2019-05-01T00:25:30.526Z,76.67
2019-05-01T00:26:30.660Z,77.15
2019-05-01T00:27:30.786Z,76.20
2019-05-01T00:28:30.933Z,76.01
2019-05-01T00:29:31.059Z,75.81
2019-05-01T00:30:31.221Z,75.62
2019-05-01T00:31:31.337Z,75.62
2019-05-01T00:32:31.464Z,75.72
2019-05-01T00:33:31.588Z,76.10
2019-05-01T00:34:31.757Z,76.39
2019-05-01T00:35:31.866Z,75.81
2019-05-01T00:36:31.999Z,75.91
2019-05-01T00:37:32.139Z,75.81
2019-05-01T00:38:32.268Z,76.48
2019-05-01T00:39:32.402Z,76.10
2019-05-01T00:40:32.531Z,76.10
2019-05-01T00:41:32.699Z,76.48
2019-05-01T00:42:32.829Z,76.67
2019-05-01T00:43:32.954Z,76.86
2019-05-01T00:44:33.077Z,77.06
2019-05-01T00:45:33.264Z,76.86
2019-05-01T00:46:33.382Z,76.67
2019-05-01T00:47:33.522Z,76.86
2019-05-01T00:48:33.650Z,76.77
2019-05-01T00:49:33.820Z,76.86
2019-05-01T00:50:33.929Z,76.57
2019-05-01T00:51:34.062Z,76.67
2019-05-01T00:52:34.189Z,77.25
2019-05-01T00:53:34.354Z,77.15
2019-05-01T00:54:34.455Z,77.15
2019-05-01T00:55:34.588Z,77.44
2019-05-01T00:56:34.712Z,77.44
2019-05-01T00:57:34.863Z,77.06
2019-05-01T00:58:34.986Z,77.15
2019-05-01T00:59:35.115Z,77.40
2019-05-01T01:00:42.916Z,77.49
2019-05-01T01:01:35.408Z,77.01
2019-05-01T01:02:35.531Z,76.64
2019-05-01T01:03:35.652Z,76.44
2019-05-01T01:04:35.779Z,76.82
2019-05-01T01:05:35.920Z,76.73
2019-05-01T01:06:36.044Z,76.64
2019-05-01T01:07:36.172Z,76.64
2019-05-01T01:08:36.305Z,76.64
2019-05-01T01:09:36.444Z,76.82
2019-05-01T01:10:36.570Z,76.82
2019-05-01T01:11:36.694Z,77.01
2019-05-01T01:12:36.827Z,77.01
2019-05-01T01:13:36.983Z,77.30
2019-05-01T01:14:37.220Z,77.30
2019-05-01T01:15:37.215Z,78.06
2019-05-01T01:16:37.346Z,78.06
2019-05-01T01:17:37.511Z,78.06
2019-05-01T01:18:37.650Z,77.87
2019-05-01T01:19:37.781Z,77.97
2019-05-01T01:20:37.912Z,78.16
2019-05-01T01:21:38.055Z,77.87
2019-05-01T01:22:38.180Z,78.06
2019-05-01T01:23:38.323Z,78.44
2019-05-01T01:24:38.448Z,78.35
2019-05-01T01:25:38.566Z,78.73
2019-05-01T01:26:38.693Z,78.92
2019-05-01T01:27:38.826Z,78.83
2019-05-01T01:28:38.960Z,78.06
2019-05-01T01:29:39.078Z,78.35
2019-05-01T01:30:39.208Z,77.87
2019-05-01T01:31:39.345Z,77.40
2019-05-01T01:32:39.474Z,77.11
2019-05-01T01:33:39.596Z,76.92
2019-05-01T01:34:39.725Z,77.11
2019-05-01T01:35:39.855Z,77.01
2019-05-01T01:36:39.983Z,76.98
2019-05-01T01:37:40.118Z,77.36
2019-05-01T01:38:40.249Z,77.93
2019-05-01T01:39:40.369Z,77.69
2019-05-01T01:40:40.516Z,78.03
2019-05-01T01:41:40.648Z,78.31
2019-05-01T01:42:40.765Z,78.16
2019-05-01T01:43:40.896Z,78.12
2019-05-01T01:44:41.037Z,78.03
2019-05-01T01:45:41.159Z,78.03
2019-05-01T01:46:41.279Z,77.93
2019-05-01T01:47:41.412Z,78.03
2019-05-01T01:48:41.537Z,78.12
2019-05-01T01:49:41.668Z,78.03
2019-05-01T01:50:41.807Z,78.12
2019-05-01T01:51:41.931Z,77.26
2019-05-01T01:52:42.056Z,78.12
2019-05-01T01:53:42.192Z,78.31
2019-05-01T01:54:42.315Z,77.83
2019-05-01T01:55:42.442Z,78.03
2019-05-01T01:56:42.576Z,78.22
2019-05-01T01:57:42.746Z,78.12
2019-05-01T01:58:42.839Z,78.12
2019-05-01T01:59:42.965Z,78.22
2019-05-01T02:00:43.092Z,78.22
2019-05-01T02:01:43.214Z,78.22
2019-05-01T02:02:43.347Z,78.59
2019-05-01T02:03:43.480Z,78.88
2019-05-01T02:04:43.606Z,78.41
2019-05-01T02:05:43.737Z,78.31
2019-05-01T02:06:43.864Z,78.41
2019-05-01T02:07:43.993Z,78.98
2019-05-01T02:08:55.971Z,79.07
2019-05-01T02:09:44.246Z,79.17
2019-05-01T02:10:44.404Z,79.27
2019-05-01T02:11:44.503Z,78.88
2019-05-01T02:12:44.630Z,78.78
2019-05-01T02:13:44.757Z,78.98
2019-05-01T02:14:44.891Z,79.17
2019-05-01T02:15:45.008Z,78.22
2019-05-01T02:16:45.145Z,78.22
2019-05-01T02:17:45.266Z,78.41
2019-05-01T02:18:45.391Z,77.93
2019-05-01T02:19:45.524Z,78.12
2019-05-01T02:20:45.648Z,77.83
2019-05-01T02:21:45.787Z,78.12
2019-05-01T02:22:45.914Z,77.36
2019-05-01T02:23:46.045Z,78.03
2019-05-01T02:24:46.164Z,78.12
2019-05-01T02:25:46.290Z,77.74
2019-05-01T02:26:46.424Z,78.12
2019-05-01T02:27:46.548Z,78.22
2019-05-01T02:28:46.678Z,77.83
2019-05-01T02:29:46.794Z,77.83
2019-05-01T02:30:46.927Z,77.98
2019-05-01T02:31:47.087Z,77.93
2019-05-01T02:32:47.181Z,77.93
2019-05-01T02:33:47.314Z,78.31
2019-05-01T02:34:47.441Z,78.59
2019-05-01T02:35:47.568Z,78.22
2019-05-01T02:36:47.700Z,78.41
2019-05-01T02:37:47.826Z,78.41
2019-05-01T02:38:47.951Z,78.50
2019-05-01T02:39:48.081Z,79.07
2019-05-01T02:40:48.210Z,78.78
2019-05-01T02:41:48.339Z,79.07
2019-05-01T02:42:48.465Z,78.98
2019-05-01T02:43:48.592Z,78.88
2019-05-01T02:44:48.732Z,79.46
2019-05-01T02:45:48.837Z,79.74
2019-05-01T02:46:48.993Z,80.22
2019-05-01T02:47:49.111Z,80.02
2019-05-01T02:48:52.755Z,80.18
2019-05-01T02:49:49.370Z,80.36
2019-05-01T02:50:49.495Z,80.31
2019-05-01T02:51:49.614Z,80.50
2019-05-01T02:52:49.744Z,80.60
2019-05-01T02:53:49.869Z,80.50
2019-05-01T02:54:50.013Z,80.41
2019-05-01T02:55:50.130Z,80.69
2019-05-01T02:56:50.256Z,80.60
2019-05-01T02:57:50.382Z,80.69
2019-05-01T02:58:50.524Z,80.31
2019-05-01T02:59:50.633Z,80.22
2019-05-01T03:00:50.757Z,80.31
2019-05-01T03:01:50.881Z,80.31
2019-05-01T03:02:51.014Z,80.50
2019-05-01T03:03:51.142Z,80.79
2019-05-01T03:04:51.292Z,80.60
2019-05-01T03:05:51.482Z,80.50
2019-05-01T03:06:51.609Z,80.31
2019-05-01T03:07:51.730Z,80.41
2019-05-01T03:08:51.867Z,80.69
2019-05-01T03:09:51.994Z,80.22
2019-05-01T03:10:52.120Z,80.22
2019-05-01T03:11:52.261Z,80.31
2019-05-01T03:12:52.412Z,79.83
2019-05-01T03:13:52.530Z,79.83
2019-05-01T03:14:52.655Z,80.02
2019-05-01T03:15:52.783Z,79.93
2019-05-01T03:16:52.927Z,79.99
2019-05-01T03:17:53.037Z,80.18
2019-05-01T03:18:53.163Z,80.08
2019-05-01T03:19:53.312Z,81.13
2019-05-01T03:20:53.438Z,81.13
2019-05-01T03:21:53.567Z,80.46
2019-05-01T03:22:53.697Z,81.23
2019-05-01T03:23:53.859Z,80.94
2019-05-01T03:24:53.986Z,81.60
2019-05-01T03:25:54.123Z,81.51
2019-05-01T03:26:54.242Z,81.51
2019-05-01T03:27:54.388Z,81.89
2019-05-01T03:28:54.506Z,81.60
2019-05-01T03:29:54.632Z,81.41
2019-05-01T03:30:54.761Z,81.41
2019-05-01T03:32:15.538Z,81.70
2019-05-01T03:32:55.142Z,81.41
2019-05-01T03:33:55.146Z,81.32
2019-05-01T03:34:55.277Z,80.84
2019-05-01T03:35:55.415Z,80.65
2019-05-01T03:36:55.538Z,80.75
2019-05-01T03:37:55.667Z,80.18
2019-05-01T03:38:55.796Z,80.18
2019-05-01T03:39:55.944Z,79.80
2019-05-01T03:40:56.074Z,79.80
2019-05-01T03:41:56.199Z,79.60
2019-05-01T03:42:56.333Z,79.89
2019-05-01T03:43:56.484Z,79.41
2019-05-01T03:44:56.600Z,79.80
2019-05-01T03:45:56.730Z,79.70
2019-05-01T03:46:56.862Z,79.22
2019-05-01T03:47:56.995Z,79.60
2019-05-01T03:48:57.248Z,79.70
2019-05-01T03:49:57.207Z,79.03
2019-05-01T03:50:57.324Z,79.51
2019-05-01T03:51:57.449Z,79.41
2019-05-01T03:52:57.612Z,79.41
2019-05-01T03:53:57.838Z,78.85
2019-05-01T03:54:57.838Z,78.75
2019-05-01T03:55:57.965Z,78.85
2019-05-01T03:56:58.099Z,78.75
2019-05-01T03:57:58.275Z,78.75
2019-05-01T03:58:58.403Z,79.13
2019-05-01T03:59:58.530Z,79.13
2019-05-01T04:00:58.675Z,79.13
2019-05-01T04:01:58.798Z,78.75
2019-05-01T04:02:58.918Z,79.80
2019-05-01T04:03:59.057Z,79.60
2019-05-01T04:04:59.196Z,80.08
2019-05-01T04:05:59.317Z,80.08
2019-05-01T04:06:59.453Z,79.89
2019-05-01T04:07:59.576Z,80.08
2019-05-01T04:08:59.688Z,79.80
2019-05-01T04:09:59.816Z,79.32
2019-05-01T04:10:59.945Z,79.03
2019-05-01T04:12:00.078Z,79.41
2019-05-01T04:13:00.223Z,79.32
2019-05-01T04:14:00.346Z,79.41
2019-05-01T04:15:00.478Z,79.60
2019-05-01T04:16:00.602Z,80.18
2019-05-01T04:17:00.753Z,80.55
2019-05-01T04:18:00.869Z,80.27
2019-05-01T04:19:00.996Z,80.18
2019-05-01T04:20:01.134Z,80.42
2019-05-01T04:21:01.270Z,80.71
2019-05-01T04:22:01.406Z,80.94
2019-05-01T04:23:01.536Z,80.94
2019-05-01T04:24:01.668Z,80.80
2019-05-01T04:25:01.825Z,80.71
2019-05-01T04:26:01.965Z,80.71
2019-05-01T04:27:02.079Z,80.18
2019-05-01T04:28:02.209Z,80.36
2019-05-01T04:29:02.375Z,80.36
2019-05-01T04:30:02.500Z,79.75
2019-05-01T04:31:02.628Z,79.80
2019-05-01T04:32:02.762Z,80.08
2019-05-01T04:33:02.917Z,80.18
2019-05-01T04:34:03.042Z,79.75
2019-05-01T04:35:03.209Z,79.75
2019-05-01T04:36:03.341Z,80.04
2019-05-01T04:37:03.461Z,80.04
2019-05-01T04:38:03.589Z,80.33
2019-05-01T04:39:03.721Z,80.36
2019-05-01T04:40:03.857Z,80.13
2019-05-01T04:41:03.985Z,80.13
2019-05-01T04:42:04.104Z,80.61
2019-05-01T04:43:04.234Z,81.09
2019-05-01T04:44:04.374Z,80.80
2019-05-01T04:45:04.508Z,81.18
2019-05-01T04:46:04.631Z,80.99
2019-05-01T04:47:04.763Z,81.47
2019-05-01T04:48:04.942Z,81.18
2019-05-01T04:49:05.018Z,81.18
2019-05-01T04:50:05.143Z,81.66
2019-05-01T04:51:05.256Z,81.66
2019-05-01T04:52:05.403Z,81.56
2019-05-01T04:53:05.529Z,81.70
2019-05-01T04:54:05.668Z,81.47
2019-05-01T04:55:05.794Z,81.37
2019-05-01T04:56:05.925Z,81.51
2019-05-01T04:57:06.051Z,81.79
2019-05-01T04:58:06.196Z,82.18
2019-05-01T04:59:06.322Z,81.79
2019-05-01T05:00:06.500Z,81.89
2019-05-01T05:01:06.628Z,81.89
2019-05-01T05:02:06.771Z,81.89
2019-05-01T05:03:06.898Z,82.37
2019-05-01T05:04:07.028Z,82.46
2019-05-01T05:05:07.169Z,82.46
2019-05-01T05:06:07.300Z,82.27
2019-05-01T05:07:07.422Z,82.14
2019-05-01T05:08:07.567Z,82.90
2019-05-01T05:09:07.670Z,83.85
2019-05-01T05:10:07.877Z,83.85
2019-05-01T05:11:07.949Z,84.33
2019-05-01T05:12:08.118Z,84.52
2019-05-01T05:13:08.230Z,84.42
2019-05-01T05:14:08.341Z,85.28
2019-05-01T05:15:08.465Z,84.99
2019-05-01T05:16:08.632Z,84.23
2019-05-01T05:17:08.749Z,84.89
2019-05-01T05:18:08.873Z,84.70
2019-05-01T05:19:09.014Z,84.33
2019-05-01T05:20:09.143Z,85.28
2019-05-01T05:21:09.269Z,84.89
2019-05-01T05:22:09.440Z,85.08
2019-05-01T05:23:09.564Z,85.18
2019-05-01T05:24:09.689Z,85.28
2019-05-01T05:25:09.819Z,85.08
2019-05-01T05:26:09.956Z,85.28
2019-05-01T05:27:10.082Z,85.08
2019-05-01T05:28:10.221Z,84.89
2019-05-01T05:29:10.355Z,85.28
2019-05-01T05:30:10.485Z,85.56
2019-05-01T05:31:10.673Z,85.47
2019-05-01T05:32:10.818Z,85.56
2019-05-01T05:33:18.289Z,85.66
2019-05-01T05:34:11.092Z,85.75
2019-05-01T05:35:11.229Z,86.57
2019-05-01T05:36:11.354Z,87.04
2019-05-01T05:37:11.500Z,86.76
2019-05-01T05:38:11.635Z,87.23
2019-05-01T05:39:11.764Z,87.08
2019-05-01T05:40:11.891Z,87.27
2019-05-01T05:41:12.053Z,87.27
2019-05-01T05:42:12.160Z,87.08
2019-05-01T05:43:12.288Z,87.27
2019-05-01T05:44:12.417Z,86.80
2019-05-01T05:45:12.558Z,86.51
2019-05-01T05:46:12.690Z,86.22
2019-05-01T05:47:12.825Z,86.32
2019-05-01T05:48:12.952Z,85.47
2019-05-01T05:49:13.110Z,85.47
2019-05-01T05:50:13.233Z,85.56
2019-05-01T05:51:13.372Z,85.75
2019-05-01T05:52:13.485Z,85.66
2019-05-01T05:53:13.624Z,85.66
2019-05-01T05:54:13.741Z,85.89
2019-05-01T05:55:13.869Z,85.75
2019-05-01T05:56:14.008Z,85.28
2019-05-01T05:57:14.151Z,85.75
2019-05-01T05:58:14.276Z,85.56
2019-05-01T05:59:14.406Z,85.37
2019-05-01T06:00:14.533Z,85.37
2019-05-01T06:01:14.699Z,86.13
2019-05-01T06:02:14.822Z,86.13
2019-05-01T06:03:14.949Z,86.13
2019-05-01T06:04:15.071Z,86.51
2019-05-01T06:05:15.203Z,86.61
2019-05-01T06:06:15.352Z,86.32
2019-05-01T06:07:15.482Z,85.94
2019-05-01T06:08:15.609Z,86.32
2019-05-01T06:09:15.733Z,86.51
2019-05-01T06:10:18.483Z,86.32
2019-05-01T06:11:16.000Z,86.51
2019-05-01T06:12:16.129Z,86.70
2019-05-01T06:13:17.904Z,86.80
2019-05-01T06:14:16.378Z,86.99
2019-05-01T06:15:16.517Z,87.18
2019-05-01T06:16:17.483Z,87.46
2019-05-01T06:17:16.774Z,87.08
2019-05-01T06:18:16.906Z,87.27
2019-05-01T06:19:17.053Z,86.90
2019-05-01T06:20:20.863Z,87.85
2019-05-01T06:21:17.298Z,87.94
2019-05-01T06:22:17.426Z,88.60
2019-05-01T06:23:20.565Z,88.51
2019-05-01T06:24:17.700Z,88.42
2019-05-01T06:25:22.616Z,88.32
2019-05-01T06:26:17.947Z,88.51
2019-05-01T06:27:18.071Z,88.13
2019-05-01T06:28:19.972Z,89.08
2019-05-01T06:29:18.327Z,89.08
2019-05-01T06:30:18.457Z,89.08
2019-05-01T06:31:23.197Z,89.84
2019-05-01T06:32:18.706Z,89.47
2019-05-01T06:33:18.836Z,89.03
2019-05-01T06:34:18.970Z,89.41
2019-05-01T06:35:19.092Z,89.22
2019-05-01T06:36:19.224Z,89.22
2019-05-01T06:37:20.860Z,89.03
2019-05-01T06:38:19.478Z,88.93
2019-05-01T06:39:19.596Z,89.13
2019-05-01T06:40:22.504Z,88.65
2019-05-01T06:41:19.868Z,88.37
2019-05-01T06:42:19.982Z,89.22
2019-05-01T06:43:24.702Z,88.65
2019-05-01T06:44:20.236Z,89.13
2019-05-01T06:45:20.388Z,88.75
2019-05-01T06:46:22.104Z,88.65
2019-05-01T06:47:20.627Z,88.46
2019-05-01T06:48:20.769Z,88.37
2019-05-01T06:49:24.275Z,88.56
2019-05-01T06:50:21.005Z,88.08
2019-05-01T06:51:21.150Z,87.98
2019-05-01T06:52:24.944Z,87.84
2019-05-01T06:53:21.410Z,86.98
2019-05-01T06:54:21.540Z,87.36
2019-05-01T06:55:22.456Z,88.22
2019-05-01T06:56:21.797Z,87.46
2019-05-01T06:57:21.960Z,87.55
2019-05-01T06:58:22.085Z,87.55
2019-05-01T06:59:26.359Z,87.46
2019-05-01T07:00:22.353Z,87.07
2019-05-01T07:01:24.028Z,87.07
2019-05-01T07:02:22.613Z,87.55
2019-05-01T07:03:22.748Z,87.74
2019-05-01T07:04:22.867Z,87.69
2019-05-01T07:05:23.033Z,87.79
2019-05-01T07:06:26.130Z,87.02
2019-05-01T07:07:25.424Z,87.12
2019-05-01T07:08:24.676Z,86.55
2019-05-01T07:09:28.071Z,87.31
2019-05-01T07:10:30.798Z,86.74
2019-05-01T07:11:23.876Z,86.83
2019-05-01T07:12:28.168Z,87.31
2019-05-01T07:13:24.095Z,86.83
2019-05-01T07:14:24.192Z,86.83
2019-05-01T07:15:26.922Z,87.02
2019-05-01T07:16:26.409Z,86.45
2019-05-01T07:17:24.528Z,86.93
2019-05-01T07:18:28.819Z,86.88
2019-05-01T07:19:24.811Z,87.46
2019-05-01T07:20:25.599Z,87.36
2019-05-01T07:21:27.748Z,88.12
2019-05-01T07:22:25.189Z,88.60
2019-05-01T07:23:25.336Z,88.70
2019-05-01T07:24:27.928Z,89.07
2019-05-01T07:25:25.592Z,89.70
2019-05-01T07:26:25.724Z,90.08
2019-05-01T07:27:25.868Z,90.65
2019-05-01T07:28:28.776Z,90.89
2019-05-01T07:29:26.130Z,90.98
2019-05-01T07:30:26.254Z,91.65
2019-05-01T07:31:31.002Z,92.08
2019-05-01T07:32:26.632Z,92.22
2019-05-01T07:33:26.644Z,92.22
2019-05-01T07:34:27.456Z,91.74
2019-05-01T07:35:26.920Z,91.55
2019-05-01T07:36:27.069Z,91.55
2019-05-01T07:37:27.785Z,91.65
2019-05-01T07:38:27.326Z,91.27
2019-05-01T07:39:27.464Z,91.55
2019-05-01T07:40:30.078Z,91.65
2019-05-01T07:41:27.729Z,91.74
2019-05-01T07:42:27.855Z,91.65
2019-05-01T07:43:28.005Z,91.65
2019-05-01T07:44:29.931Z,91.74
2019-05-01T07:45:28.263Z,91.94
2019-05-01T07:46:28.418Z,91.46
2019-05-01T07:47:30.513Z,91.65
2019-05-01T07:48:28.715Z,91.50
2019-05-01T07:49:28.832Z,91.79
2019-05-01T07:50:31.857Z,91.88
2019-05-01T07:51:29.103Z,91.69
2019-05-01T07:52:29.235Z,91.60
2019-05-01T07:53:29.472Z,92.17
2019-05-01T07:54:29.501Z,92.36
2019-05-01T07:55:29.638Z,92.36
2019-05-01T07:56:30.097Z,92.36
2019-05-01T07:57:34.311Z,92.55
2019-05-01T07:58:30.039Z,92.27
2019-05-01T07:59:30.161Z,93.41
2019-05-01T08:00:30.291Z,93.70
2019-05-01T08:01:30.421Z,93.12
2019-05-01T08:02:32.730Z,93.12
2019-05-01T08:03:30.722Z,93.03
2019-05-01T08:04:37.530Z,93.17
2019-05-01T08:05:30.975Z,93.08
2019-05-01T08:06:31.127Z,92.98
2019-05-01T08:07:32.353Z,92.60
2019-05-01T08:08:31.368Z,92.03
2019-05-01T08:09:31.505Z,92.03
2019-05-01T08:10:33.911Z,92.12
2019-05-01T08:11:31.772Z,91.93
2019-05-01T08:12:31.890Z,91.93
2019-05-01T08:13:35.099Z,91.64
2019-05-01T08:14:32.190Z,90.98
2019-05-01T08:15:32.741Z,90.69
2019-05-01T08:16:32.473Z,91.46
2019-05-01T08:17:32.613Z,90.31
2019-05-01T08:18:32.767Z,90.31
2019-05-01T08:19:34.799Z,90.31
2019-05-01T08:20:33.023Z,89.78
2019-05-01T08:21:33.150Z,90.07
2019-05-01T08:22:37.083Z,90.26
2019-05-01T08:23:33.406Z,89.50
2019-05-01T08:24:33.537Z,89.21
2019-05-01T08:25:34.455Z,89.40
2019-05-01T08:26:33.812Z,88.64
2019-05-01T08:27:33.944Z,88.83
2019-05-01T08:28:34.068Z,88.35
2019-05-01T08:29:36.983Z,88.73
2019-05-01T08:30:34.345Z,89.21
2019-05-01T08:31:34.484Z,89.16
2019-05-01T08:32:39.249Z,88.87
2019-05-01T08:33:34.740Z,88.59
2019-05-01T08:34:34.884Z,88.01
2019-05-01T08:35:36.441Z,87.54
2019-05-01T08:36:35.131Z,87.63
2019-05-01T08:37:35.244Z,86.96
2019-05-01T08:38:35.464Z,86.77
2019-05-01T08:39:35.512Z,87.44
2019-05-01T08:40:37.258Z,87.15
2019-05-01T08:41:37.680Z,86.10
2019-05-01T08:42:37.706Z,85.63
2019-05-01T08:43:36.025Z,85.44
2019-05-01T08:44:36.156Z,85.86
2019-05-01T08:45:40.635Z,86.82
2019-05-01T08:46:36.412Z,86.34
2019-05-01T08:47:36.532Z,85.48
2019-05-01T08:48:37.754Z,84.62
2019-05-01T08:49:36.793Z,83.38
2019-05-01T08:50:36.922Z,82.90
2019-05-01T08:51:37.055Z,84.47
2019-05-01T08:52:37.188Z,83.13
2019-05-01T08:53:37.318Z,83.61
2019-05-01T08:54:37.446Z,84.38
2019-05-01T08:55:39.900Z,83.13
2019-05-01T08:56:37.710Z,83.51
2019-05-01T08:57:39.571Z,83.23
2019-05-01T08:58:37.985Z,83.33
2019-05-01T08:59:38.110Z,82.89
2019-05-01T09:00:41.188Z,81.36
2019-05-01T09:01:38.378Z,80.69
2019-05-01T09:02:41.489Z,79.44
2019-05-01T09:03:38.659Z,79.44
2019-05-01T09:04:38.795Z,78.97
2019-05-01T09:05:38.933Z,78.39
2019-05-01T09:06:39.514Z,79.35
2019-05-01T09:07:39.275Z,78.49
2019-05-01T09:08:39.348Z,77.53
2019-05-01T09:09:44.844Z,78.01
2019-05-01T09:10:39.597Z,77.34
2019-05-01T09:11:39.724Z,75.91
2019-05-01T09:12:42.588Z,75.91
2019-05-01T09:13:40.013Z,76.20
2019-05-01T09:14:40.137Z,76.57
2019-05-01T09:15:43.802Z,76.42
2019-05-01T09:16:40.404Z,75.91
2019-05-01T09:17:40.583Z,74.22
2019-05-01T09:18:40.755Z,71.93
2019-05-01T09:19:40.887Z,72.22
2019-05-01T09:20:41.011Z,73.65
2019-05-01T09:21:41.155Z,73.55
2019-05-01T09:22:41.289Z,73.65
2019-05-01T09:23:41.432Z,73.75
2019-05-01T09:24:41.552Z,71.77
2019-05-01T09:25:41.709Z,70.72
2019-05-01T09:26:45.378Z,72.06
2019-05-01T09:27:41.967Z,72.73
2019-05-01T09:28:42.152Z,71.58
2019-05-01T09:29:42.254Z,71.48
2019-05-01T09:30:42.383Z,70.91
2019-05-01T09:31:42.512Z,70.81
2019-05-01T09:32:45.897Z,71.30
2019-05-01T09:33:42.836Z,70.85
2019-05-01T09:34:42.928Z,70.43
2019-05-01T09:35:45.279Z,70.28
2019-05-01T09:36:43.203Z,70.37
2019-05-01T09:37:43.385Z,69.60
2019-05-01T09:38:43.508Z,69.70
2019-05-01T09:39:43.640Z,69.23
2019-05-01T09:40:43.780Z,68.27
2019-05-01T09:41:47.467Z,69.51
2019-05-01T09:42:44.092Z,69.42
2019-05-01T09:43:44.224Z,68.94
2019-05-01T09:44:44.353Z,69.89
2019-05-01T09:45:44.495Z,68.07
2019-05-01T09:46:44.616Z,67.69
2019-05-01T09:47:44.750Z,67.34
2019-05-01T09:48:44.885Z,66.35
2019-05-01T09:49:48.745Z,65.91
2019-05-01T09:50:45.180Z,66.09
2019-05-01T09:51:47.462Z,67.05
2019-05-01T09:52:45.424Z,66.09
2019-05-01T09:53:45.583Z,64.76
2019-05-01T09:54:46.749Z,65.62
2019-05-01T09:55:45.839Z,65.62
2019-05-01T09:56:45.992Z,64.95
2019-05-01T09:57:46.136Z,63.51
2019-05-01T09:58:46.267Z,63.60
2019-05-01T09:59:46.383Z,64.76
2019-05-01T10:00:48.895Z,66.38
2019-05-01T10:01:46.698Z,66.03
2019-05-01T10:02:46.829Z,62.87
2019-05-01T10:03:49.446Z,63.35
2019-05-01T10:04:47.205Z,63.35
2019-05-01T10:05:47.226Z,63.64
2019-05-01T10:06:47.769Z,62.87
2019-05-01T10:07:47.509Z,62.49
2019-05-01T10:08:47.657Z,62.49
2019-05-01T10:09:52.181Z,62.87
2019-05-01T10:10:47.927Z,62.62
2019-05-01T10:11:48.053Z,62.33
2019-05-01T10:12:48.459Z,62.81
2019-05-01T10:13:48.347Z,63.38
2019-05-01T10:14:48.463Z,63.29
2019-05-01T10:15:48.601Z,62.42
2019-05-01T10:16:48.746Z,63.00
2019-05-01T10:17:48.893Z,64.85
2019-05-01T10:18:49.024Z,65.14
2019-05-01T10:19:50.259Z,63.89
2019-05-01T10:20:49.324Z,62.84
2019-05-01T10:21:49.427Z,62.84
2019-05-01T10:22:49.550Z,62.93
2019-05-01T10:23:51.686Z,62.16
2019-05-01T10:24:49.844Z,62.16
2019-05-01T10:25:49.985Z,61.69
2019-05-01T10:26:50.112Z,62.65
2019-05-01T10:27:52.851Z,62.68
2019-05-01T10:28:51.609Z,62.29
2019-05-01T10:29:50.549Z,62.77
2019-05-01T10:30:50.679Z,61.72
2019-05-01T10:31:50.827Z,60.66
2019-05-01T10:32:52.739Z,61.43
2019-05-01T10:33:51.106Z,60.75
2019-05-01T10:34:51.258Z,61.91
2019-05-01T10:35:51.415Z,63.35
2019-05-01T10:36:54.499Z,63.73
2019-05-01T10:37:51.696Z,63.25
2019-05-01T10:38:51.821Z,61.27
2019-05-01T10:39:54.061Z,60.88
2019-05-01T10:40:52.158Z,61.55
2019-05-01T10:41:52.288Z,60.50
2019-05-01T10:42:52.408Z,59.92
2019-05-01T10:43:52.559Z,59.25
2019-05-01T10:44:52.697Z,59.06
2019-05-01T10:45:52.852Z,59.16
2019-05-01T10:46:52.978Z,60.69
2019-05-01T10:47:53.122Z,60.31
2019-05-01T10:48:53.317Z,59.16
2019-05-01T10:49:53.400Z,58.77
2019-05-01T10:50:53.536Z,58.58
2019-05-01T10:51:53.672Z,58.87
2019-05-01T10:53:00.166Z,59.66
2019-05-01T10:53:54.671Z,60.24
2019-05-01T10:54:54.050Z,58.70
2019-05-01T10:55:54.182Z,59.57
2019-05-01T10:56:54.376Z,60.82
2019-05-01T10:57:54.478Z,61.40
2019-05-01T10:58:56.116Z,59.12
2019-05-01T10:59:55.003Z,58.70
2019-05-01T11:00:54.894Z,59.19
2019-05-01T11:01:55.031Z,59.22
2019-05-01T11:02:55.166Z,59.12
2019-05-01T11:03:55.309Z,59.79
2019-05-01T11:04:55.475Z,60.17
2019-05-01T11:05:56.377Z,60.66
2019-05-01T11:06:55.743Z,59.15
2019-05-01T11:07:55.880Z,58.47
2019-05-01T11:08:56.023Z,59.24
2019-05-01T11:09:56.168Z,60.11
2019-05-01T11:10:56.295Z,60.81
2019-05-01T11:11:56.421Z,58.79
2019-05-01T11:12:56.564Z,58.12
2019-05-01T11:13:56.699Z,55.71
2019-05-01T11:14:56.827Z,55.71
2019-05-01T11:15:56.953Z,54.94
2019-05-01T11:16:57.089Z,55.04
2019-05-01T11:17:57.236Z,54.75
2019-05-01T11:18:57.380Z,56.48
2019-05-01T11:19:57.518Z,58.44
2019-05-01T11:20:57.655Z,58.34
2019-05-01T11:21:57.783Z,57.86
2019-05-01T11:22:57.921Z,58.63
2019-05-01T11:23:58.058Z,54.87
2019-05-01T11:24:58.201Z,55.07
2019-05-01T11:25:58.330Z,56.05
2019-05-01T11:26:58.468Z,56.35
2019-05-01T11:27:58.591Z,56.54
2019-05-01T11:28:58.739Z,56.15
2019-05-01T11:29:58.881Z,54.39
2019-05-01T11:30:59.020Z,54.87
2019-05-01T11:31:59.157Z,55.93
2019-05-01T11:32:59.289Z,55.93
2019-05-01T11:33:59.437Z,54.68
2019-05-01T11:34:59.566Z,54.97
2019-05-01T11:36:09.344Z,54.49
2019-05-01T11:36:59.837Z,55.93
2019-05-01T11:37:59.984Z,54.97
2019-05-01T11:39:00.108Z,54.49
2019-05-01T11:40:00.237Z,54.75
2019-05-01T11:41:00.382Z,55.62
2019-05-01T11:42:00.530Z,56.20
2019-05-01T11:43:02.699Z,56.10
2019-05-01T11:44:00.798Z,55.81
2019-05-01T11:45:00.927Z,57.83
2019-05-01T11:46:01.066Z,56.00
2019-05-01T11:47:01.201Z,56.20
2019-05-01T11:48:01.335Z,55.04
2019-05-01T11:49:01.461Z,54.65
2019-05-01T11:50:01.613Z,54.75
2019-05-01T11:51:01.742Z,56.36
2019-05-01T11:52:01.878Z,55.30
2019-05-01T11:53:02.030Z,54.27
2019-05-01T11:54:02.366Z,54.43
2019-05-01T11:55:02.320Z,55.33
2019-05-01T11:56:02.464Z,54.65
2019-05-01T11:57:02.611Z,54.85
2019-05-01T11:58:02.754Z,56.20
2019-05-01T11:59:02.896Z,57.35
2019-05-01T12:00:03.067Z,56.48
2019-05-01T12:01:03.185Z,56.00
2019-05-01T12:02:03.317Z,56.67
2019-05-01T12:03:03.472Z,55.90
2019-05-01T12:04:03.622Z,55.90
2019-05-01T12:05:03.743Z,54.94
2019-05-01T12:06:03.872Z,56.00
2019-05-01T12:07:04.011Z,56.77
2019-05-01T12:08:04.168Z,57.09
2019-05-01T12:09:04.319Z,56.70
2019-05-01T12:10:04.446Z,57.37
2019-05-01T12:11:04.581Z,54.87
2019-05-01T12:12:04.729Z,56.44
2019-05-01T12:13:04.861Z,56.44
2019-05-01T12:14:05.008Z,54.03
2019-05-01T12:15:05.136Z,55.96
2019-05-01T12:16:05.313Z,54.64
2019-05-01T12:17:05.430Z,55.41
2019-05-01T12:18:05.560Z,54.54
2019-05-01T12:19:05.697Z,54.54
2019-05-01T12:20:05.855Z,54.16
2019-05-01T12:21:06.041Z,53.31
2019-05-01T12:22:06.177Z,53.03
2019-05-01T12:23:06.317Z,52.64
2019-05-01T12:24:06.465Z,52.06
2019-05-01T12:25:06.605Z,51.77
2019-05-01T12:26:06.750Z,52.64
2019-05-01T12:27:06.909Z,52.52
2019-05-01T12:28:07.050Z,51.46
2019-05-01T12:29:07.177Z,52.52
2019-05-01T12:30:07.314Z,52.13
2019-05-01T12:31:07.474Z,52.33
2019-05-01T12:32:07.612Z,52.33
2019-05-01T12:33:07.752Z,52.81
2019-05-01T12:34:07.888Z,51.94
2019-05-01T12:35:08.044Z,52.52
2019-05-01T12:36:08.172Z,52.04
2019-05-01T12:37:08.314Z,52.93
2019-05-01T12:38:08.444Z,52.83
2019-05-01T12:39:08.584Z,51.68
2019-05-01T12:40:08.713Z,52.25
2019-05-01T12:41:08.843Z,51.68
2019-05-01T12:42:08.989Z,52.86
2019-05-01T12:43:12.091Z,53.25
2019-05-01T12:44:09.257Z,53.83
2019-05-01T12:45:09.390Z,53.05
2019-05-01T12:46:09.532Z,54.60
2019-05-01T12:47:09.692Z,56.04
2019-05-01T12:48:09.836Z,54.11
2019-05-01T12:49:09.980Z,53.83
2019-05-01T12:50:10.105Z,52.19
2019-05-01T12:51:10.292Z,51.80
2019-05-01T12:52:10.949Z,51.80
2019-05-01T12:53:10.554Z,51.70
2019-05-01T12:54:10.700Z,52.47